sensor_id;sensor_type;location;lat;lon;timestamp;temperature;humidity
19348;DHT22;9810;52.480;9.806;2023-04-06T00:01:08;0.40;99.90
19348;DHT22;9810;52.480;9.806;2023-04-06T00:03:36;0.40;99.90
19348;DHT22;9810;52.480;9.806;2023-04-06T00:06:04;0.40;99.90
19348;DHT22;9810;52.480;9.806;2023-04-06T00:08:31;0.30;99.90
19348;DHT22;9810;52.480;9.806;2023-04-06T00:10:58;0.20;99.90
19348;DHT22;9810;52.480;9.806;2023-04-06T00:13:26;0.10;99.90
19348;DHT22;9810;52.480;9.806;2023-04-06T00:15:53;0.10;99.90
19348;DHT22;9810;52.480;9.806;2023-04-06T00:18:22;0.00;99.90
19348;DHT22;9810;52.480;9.806;2023-04-06T00:20:50;0.00;99.90
19348;DHT22;9810;52.480;9.806;2023-04-06T00:23:18;0.00;99.90
19348;DHT22;9810;52.480;9.806;2023-04-06T00:25:45;0.00;99.90
19348;DHT22;9810;52.480;9.806;2023-04-06T00:28:13;0.00;99.90
19348;DHT22;9810;52.480;9.806;2023-04-06T00:30:40;0.00;99.90
19348;DHT22;9810;52.480;9.806;2023-04-06T00:33:08;-0.10;99.90
19348;DHT22;9810;52.480;9.806;2023-04-06T00:35:37;-0.10;99.90
19348;DHT22;9810;52.480;9.806;2023-04-06T00:38:05;-0.10;99.90
19348;DHT22;9810;52.480;9.806;2023-04-06T00:40:32;-0.10;99.90
19348;DHT22;9810;52.480;9.806;2023-04-06T00:43:00;-0.10;99.90
19348;DHT22;9810;52.480;9.806;2023-04-06T00:45:28;0.00;99.90
19348;DHT22;9810;52.480;9.806;2023-04-06T00:47:56;0.00;99.90
19348;DHT22;9810;52.480;9.806;2023-04-06T00:50:24;0.00;99.90
19348;DHT22;9810;52.480;9.806;2023-04-06T00:52:54;0.00;99.90
19348;DHT22;9810;52.480;9.806;2023-04-06T00:55:22;0.00;99.90
19348;DHT22;9810;52.480;9.806;2023-04-06T00:57:49;-0.10;99.90
19348;DHT22;9810;52.480;9.806;2023-04-06T01:00:17;-0.10;99.90
19348;DHT22;9810;52.480;9.806;2023-04-06T01:02:45;-0.20;99.90
19348;DHT22;9810;52.480;9.806;2023-04-06T01:05:13;0.00;99.90
19348;DHT22;9810;52.480;9.806;2023-04-06T01:07:41;0.00;99.90
19348;DHT22;9810;52.480;9.806;2023-04-06T01:10:10;0.00;99.90
19348;DHT22;9810;52.480;9.806;2023-04-06T01:12:38;0.00;99.90
19348;DHT22;9810;52.480;9.806;2023-04-06T01:15:07;-0.10;99.90
19348;DHT22;9810;52.480;9.806;2023-04-06T01:17:36;0.00;99.90
19348;DHT22;9810;52.480;9.806;2023-04-06T01:20:04;0.10;99.90
19348;DHT22;9810;52.480;9.806;2023-04-06T01:22:33;0.10;99.90
19348;DHT22;9810;52.480;9.806;2023-04-06T01:25:00;0.10;99.90
19348;DHT22;9810;52.480;9.806;2023-04-06T01:27:28;0.00;99.90
19348;DHT22;9810;52.480;9.806;2023-04-06T01:29:55;0.00;99.90
19348;DHT22;9810;52.480;9.806;2023-04-06T01:32:23;-0.10;99.90
19348;DHT22;9810;52.480;9.806;2023-04-06T01:34:51;-0.10;99.90
19348;DHT22;9810;52.480;9.806;2023-04-06T01:37:18;-0.10;99.90
19348;DHT22;9810;52.480;9.806;2023-04-06T01:39:47;0.00;99.90
19348;DHT22;9810;52.480;9.806;2023-04-06T01:42:15;0.00;99.90
19348;DHT22;9810;52.480;9.806;2023-04-06T01:44:42;-0.10;99.90
19348;DHT22;9810;52.480;9.806;2023-04-06T01:47:10;-0.10;99.90
19348;DHT22;9810;52.480;9.806;2023-04-06T01:49:37;-0.30;99.90
19348;DHT22;9810;52.480;9.806;2023-04-06T01:52:05;-0.40;99.90
19348;DHT22;9810;52.480;9.806;2023-04-06T01:54:32;-0.40;99.90
19348;DHT22;9810;52.480;9.806;2023-04-06T01:57:01;-0.40;99.90
19348;DHT22;9810;52.480;9.806;2023-04-06T01:59:29;-0.40;99.90
19348;DHT22;9810;52.480;9.806;2023-04-06T02:01:56;-0.40;99.90
19348;DHT22;9810;52.480;9.806;2023-04-06T02:04:23;-0.60;99.90
19348;DHT22;9810;52.480;9.806;2023-04-06T02:06:51;-0.50;99.90
19348;DHT22;9810;52.480;9.806;2023-04-06T02:09:19;-0.50;99.90
19348;DHT22;9810;52.480;9.806;2023-04-06T02:11:46;-0.60;99.90
19348;DHT22;9810;52.480;9.806;2023-04-06T02:14:15;-0.60;99.90
19348;DHT22;9810;52.480;9.806;2023-04-06T02:16:43;-0.60;99.90
19348;DHT22;9810;52.480;9.806;2023-04-06T02:19:10;-0.60;99.90
19348;DHT22;9810;52.480;9.806;2023-04-06T02:21:37;-0.70;99.90
19348;DHT22;9810;52.480;9.806;2023-04-06T02:24:05;-0.70;99.90
19348;DHT22;9810;52.480;9.806;2023-04-06T02:26:33;-0.70;99.90
19348;DHT22;9810;52.480;9.806;2023-04-06T02:29:00;-0.70;99.90
19348;DHT22;9810;52.480;9.806;2023-04-06T02:31:30;-0.70;99.90
19348;DHT22;9810;52.480;9.806;2023-04-06T02:33:57;-0.70;99.90
19348;DHT22;9810;52.480;9.806;2023-04-06T02:36:24;-0.70;99.90
19348;DHT22;9810;52.480;9.806;2023-04-06T02:38:52;-0.70;99.90
19348;DHT22;9810;52.480;9.806;2023-04-06T02:41:19;-0.70;99.90
19348;DHT22;9810;52.480;9.806;2023-04-06T02:43:47;-0.60;99.90
19348;DHT22;9810;52.480;9.806;2023-04-06T02:46:14;-0.60;99.90
19348;DHT22;9810;52.480;9.806;2023-04-06T02:48:43;-0.70;99.90
19348;DHT22;9810;52.480;9.806;2023-04-06T02:51:11;-0.70;99.90
19348;DHT22;9810;52.480;9.806;2023-04-06T02:53:38;-0.80;99.90
19348;DHT22;9810;52.480;9.806;2023-04-06T02:56:06;-0.80;99.90
19348;DHT22;9810;52.480;9.806;2023-04-06T02:58:33;-0.80;99.90
19348;DHT22;9810;52.480;9.806;2023-04-06T03:01:01;-0.80;99.90
19348;DHT22;9810;52.480;9.806;2023-04-06T03:03:28;-0.90;99.90
19348;DHT22;9810;52.480;9.806;2023-04-06T03:05:57;-0.90;99.90
19348;DHT22;9810;52.480;9.806;2023-04-06T03:08:25;-0.90;99.90
19348;DHT22;9810;52.480;9.806;2023-04-06T03:10:53;-0.80;99.90
19348;DHT22;9810;52.480;9.806;2023-04-06T03:13:21;-0.90;99.90
19348;DHT22;9810;52.480;9.806;2023-04-06T03:15:48;-0.90;99.90
19348;DHT22;9810;52.480;9.806;2023-04-06T03:18:17;-0.90;99.90
19348;DHT22;9810;52.480;9.806;2023-04-06T03:20:45;-1.00;99.90
19348;DHT22;9810;52.480;9.806;2023-04-06T03:23:14;-1.00;99.90
19348;DHT22;9810;52.480;9.806;2023-04-06T03:25:42;-1.00;99.90
19348;DHT22;9810;52.480;9.806;2023-04-06T03:28:09;-1.00;99.90
19348;DHT22;9810;52.480;9.806;2023-04-06T03:30:37;-0.90;99.90
19348;DHT22;9810;52.480;9.806;2023-04-06T03:33:04;-0.90;99.90
19348;DHT22;9810;52.480;9.806;2023-04-06T03:35:31;-1.00;99.90
19348;DHT22;9810;52.480;9.806;2023-04-06T03:37:59;-1.00;99.90
19348;DHT22;9810;52.480;9.806;2023-04-06T03:40:28;-1.00;99.90
19348;DHT22;9810;52.480;9.806;2023-04-06T03:42:55;-1.00;99.90
19348;DHT22;9810;52.480;9.806;2023-04-06T03:45:23;-0.90;99.90
19348;DHT22;9810;52.480;9.806;2023-04-06T03:47:50;-0.90;99.90
19348;DHT22;9810;52.480;9.806;2023-04-06T03:50:18;-0.90;99.90
19348;DHT22;9810;52.480;9.806;2023-04-06T03:52:45;-0.90;99.90
19348;DHT22;9810;52.480;9.806;2023-04-06T03:55:13;-1.00;99.90
19348;DHT22;9810;52.480;9.806;2023-04-06T03:57:42;-1.00;99.90
19348;DHT22;9810;52.480;9.806;2023-04-06T04:00:11;-0.90;99.90
19348;DHT22;9810;52.480;9.806;2023-04-06T04:02:39;-0.80;99.90
19348;DHT22;9810;52.480;9.806;2023-04-06T04:05:06;-0.80;99.90
19348;DHT22;9810;52.480;9.806;2023-04-06T04:07:34;-0.80;99.90
19348;DHT22;9810;52.480;9.806;2023-04-06T04:10:01;-0.70;99.90
19348;DHT22;9810;52.480;9.806;2023-04-06T04:12:29;-0.80;99.90
19348;DHT22;9810;52.480;9.806;2023-04-06T04:14:58;-0.80;99.90
19348;DHT22;9810;52.480;9.806;2023-04-06T04:17:26;-0.70;99.90
19348;DHT22;9810;52.480;9.806;2023-04-06T04:19:53;-0.70;99.90
19348;DHT22;9810;52.480;9.806;2023-04-06T04:22:21;-0.60;99.90
19348;DHT22;9810;52.480;9.806;2023-04-06T04:24:48;-0.60;99.90
19348;DHT22;9810;52.480;9.806;2023-04-06T04:27:15;-0.60;99.90
19348;DHT22;9810;52.480;9.806;2023-04-06T04:29:43;-0.70;99.90
19348;DHT22;9810;52.480;9.806;2023-04-06T04:32:12;-0.70;99.90
19348;DHT22;9810;52.480;9.806;2023-04-06T04:34:40;-0.70;99.90
19348;DHT22;9810;52.480;9.806;2023-04-06T04:37:07;-0.80;99.90
19348;DHT22;9810;52.480;9.806;2023-04-06T04:39:35;-0.80;99.90
19348;DHT22;9810;52.480;9.806;2023-04-06T04:42:02;-0.80;99.90
19348;DHT22;9810;52.480;9.806;2023-04-06T04:44:30;-0.70;99.90
19348;DHT22;9810;52.480;9.806;2023-04-06T04:46:57;-0.40;99.90
19348;DHT22;9810;52.480;9.806;2023-04-06T04:49:26;-0.40;99.90
19348;DHT22;9810;52.480;9.806;2023-04-06T04:51:54;-0.40;99.90
19348;DHT22;9810;52.480;9.806;2023-04-06T04:54:21;-0.30;99.90
19348;DHT22;9810;52.480;9.806;2023-04-06T04:56:49;-0.30;99.90
19348;DHT22;9810;52.480;9.806;2023-04-06T04:59:17;-0.20;99.90
19348;DHT22;9810;52.480;9.806;2023-04-06T05:01:44;-0.20;99.90
19348;DHT22;9810;52.480;9.806;2023-04-06T05:04:12;-0.10;99.90
19348;DHT22;9810;52.480;9.806;2023-04-06T05:06:41;-0.10;99.90
19348;DHT22;9810;52.480;9.806;2023-04-06T05:09:08;-0.10;99.90
19348;DHT22;9810;52.480;9.806;2023-04-06T05:11:36;-0.10;99.90
19348;DHT22;9810;52.480;9.806;2023-04-06T05:14:03;-0.10;99.90
19348;DHT22;9810;52.480;9.806;2023-04-06T05:16:32;0.00;99.90
19348;DHT22;9810;52.480;9.806;2023-04-06T05:19:00;0.00;99.90
19348;DHT22;9810;52.480;9.806;2023-04-06T05:21:27;0.10;99.90
19348;DHT22;9810;52.480;9.806;2023-04-06T05:23:57;0.20;99.90
19348;DHT22;9810;52.480;9.806;2023-04-06T05:26:24;0.20;99.90
19348;DHT22;9810;52.480;9.806;2023-04-06T05:28:52;0.30;99.90
19348;DHT22;9810;52.480;9.806;2023-04-06T05:31:20;0.30;99.90
19348;DHT22;9810;52.480;9.806;2023-04-06T05:33:47;0.50;99.90
19348;DHT22;9810;52.480;9.806;2023-04-06T05:36:15;0.50;99.90
19348;DHT22;9810;52.480;9.806;2023-04-06T05:38:42;0.50;99.90
19348;DHT22;9810;52.480;9.806;2023-04-06T05:41:11;0.60;99.90
19348;DHT22;9810;52.480;9.806;2023-04-06T05:43:39;0.80;99.90
19348;DHT22;9810;52.480;9.806;2023-04-06T05:46:07;0.80;99.90
19348;DHT22;9810;52.480;9.806;2023-04-06T05:48:34;0.90;99.90
19348;DHT22;9810;52.480;9.806;2023-04-06T05:51:02;1.00;99.90
19348;DHT22;9810;52.480;9.806;2023-04-06T05:53:31;1.10;99.90
19348;DHT22;9810;52.480;9.806;2023-04-06T05:56:00;1.10;99.90
19348;DHT22;9810;52.480;9.806;2023-04-06T05:58:29;1.20;99.90
19348;DHT22;9810;52.480;9.806;2023-04-06T06:00:57;1.20;99.90
19348;DHT22;9810;52.480;9.806;2023-04-06T06:03:25;1.30;99.90
19348;DHT22;9810;52.480;9.806;2023-04-06T06:05:52;1.30;99.90
19348;DHT22;9810;52.480;9.806;2023-04-06T06:08:20;1.40;99.90
19348;DHT22;9810;52.480;9.806;2023-04-06T06:10:47;1.50;99.90
19348;DHT22;9810;52.480;9.806;2023-04-06T06:13:15;1.60;99.90
19348;DHT22;9810;52.480;9.806;2023-04-06T06:15:44;1.70;99.90
19348;DHT22;9810;52.480;9.806;2023-04-06T06:18:12;1.70;99.90
19348;DHT22;9810;52.480;9.806;2023-04-06T06:20:39;1.80;99.90
19348;DHT22;9810;52.480;9.806;2023-04-06T06:23:07;1.90;99.90
19348;DHT22;9810;52.480;9.806;2023-04-06T06:25:34;2.00;99.90
19348;DHT22;9810;52.480;9.806;2023-04-06T06:28:01;2.10;99.90
19348;DHT22;9810;52.480;9.806;2023-04-06T06:30:29;2.20;99.90
19348;DHT22;9810;52.480;9.806;2023-04-06T06:32:58;2.30;99.90
19348;DHT22;9810;52.480;9.806;2023-04-06T06:35:26;2.50;99.90
19348;DHT22;9810;52.480;9.806;2023-04-06T06:37:53;2.60;99.90
19348;DHT22;9810;52.480;9.806;2023-04-06T06:40:21;2.70;99.90
19348;DHT22;9810;52.480;9.806;2023-04-06T06:42:49;2.90;99.90
19348;DHT22;9810;52.480;9.806;2023-04-06T06:45:18;3.00;99.90
19348;DHT22;9810;52.480;9.806;2023-04-06T06:47:45;3.20;99.90
19348;DHT22;9810;52.480;9.806;2023-04-06T06:50:15;3.30;99.90
19348;DHT22;9810;52.480;9.806;2023-04-06T06:52:42;3.50;99.90
19348;DHT22;9810;52.480;9.806;2023-04-06T06:55:10;3.60;99.90
19348;DHT22;9810;52.480;9.806;2023-04-06T06:57:38;3.70;99.90
19348;DHT22;9810;52.480;9.806;2023-04-06T07:00:08;3.80;99.90
19348;DHT22;9810;52.480;9.806;2023-04-06T07:02:36;3.90;99.90
19348;DHT22;9810;52.480;9.806;2023-04-06T07:05:04;4.10;99.90
19348;DHT22;9810;52.480;9.806;2023-04-06T07:07:34;4.20;99.90
19348;DHT22;9810;52.480;9.806;2023-04-06T07:10:01;4.40;99.90
19348;DHT22;9810;52.480;9.806;2023-04-06T07:12:28;4.70;99.90
19348;DHT22;9810;52.480;9.806;2023-04-06T07:14:56;4.80;99.90
19348;DHT22;9810;52.480;9.806;2023-04-06T07:17:23;5.00;99.90
19348;DHT22;9810;52.480;9.806;2023-04-06T07:19:51;5.20;99.90
19348;DHT22;9810;52.480;9.806;2023-04-06T07:22:18;5.40;99.90
19348;DHT22;9810;52.480;9.806;2023-04-06T07:24:47;5.40;99.90
19348;DHT22;9810;52.480;9.806;2023-04-06T07:27:15;5.50;99.90
19348;DHT22;9810;52.480;9.806;2023-04-06T07:29:42;5.90;99.90
19348;DHT22;9810;52.480;9.806;2023-04-06T07:32:10;6.00;99.90
19348;DHT22;9810;52.480;9.806;2023-04-06T07:34:37;6.30;99.90
19348;DHT22;9810;52.480;9.806;2023-04-06T07:37:05;6.50;99.90
19348;DHT22;9810;52.480;9.806;2023-04-06T07:39:33;6.70;99.90
19348;DHT22;9810;52.480;9.806;2023-04-06T07:42:02;6.70;99.90
19348;DHT22;9810;52.480;9.806;2023-04-06T07:44:30;7.20;99.90
19348;DHT22;9810;52.480;9.806;2023-04-06T07:46:57;7.80;99.90
19348;DHT22;9810;52.480;9.806;2023-04-06T07:49:25;8.60;99.90
19348;DHT22;9810;52.480;9.806;2023-04-06T07:51:52;9.90;99.90
19348;DHT22;9810;52.480;9.806;2023-04-06T07:54:20;14.60;99.90
19348;DHT22;9810;52.480;9.806;2023-04-06T07:56:47;17.50;99.90
19348;DHT22;9810;52.480;9.806;2023-04-06T07:59:16;17.50;95.40
19348;DHT22;9810;52.480;9.806;2023-04-06T08:01:44;21.00;93.70
19348;DHT22;9810;52.480;9.806;2023-04-06T08:04:11;22.30;84.80
19348;DHT22;9810;52.480;9.806;2023-04-06T08:06:39;21.80;78.80
19348;DHT22;9810;52.480;9.806;2023-04-06T08:09:06;21.30;77.70
19348;DHT22;9810;52.480;9.806;2023-04-06T08:11:34;19.60;73.30
19348;DHT22;9810;52.480;9.806;2023-04-06T08:14:01;22.30;77.80
19348;DHT22;9810;52.480;9.806;2023-04-06T08:16:31;21.50;71.50
19348;DHT22;9810;52.480;9.806;2023-04-06T08:18:58;23.40;72.80
19348;DHT22;9810;52.480;9.806;2023-04-06T08:21:25;20.70;67.20
19348;DHT22;9810;52.480;9.806;2023-04-06T08:23:53;20.70;68.70
19348;DHT22;9810;52.480;9.806;2023-04-06T08:26:20;19.60;70.20
19348;DHT22;9810;52.480;9.806;2023-04-06T08:28:48;23.20;72.60
19348;DHT22;9810;52.480;9.806;2023-04-06T08:31:16;23.70;70.30
19348;DHT22;9810;52.480;9.806;2023-04-06T08:33:45;23.50;63.60
19348;DHT22;9810;52.480;9.806;2023-04-06T08:36:13;26.80;66.60
19348;DHT22;9810;52.480;9.806;2023-04-06T08:38:42;28.20;61.20
19348;DHT22;9810;52.480;9.806;2023-04-06T08:41:10;26.90;59.90
19348;DHT22;9810;52.480;9.806;2023-04-06T08:43:43;25.80;62.90
19348;DHT22;9810;52.480;9.806;2023-04-06T08:46:11;26.60;59.20
19348;DHT22;9810;52.480;9.806;2023-04-06T08:48:40;26.50;58.00
19348;DHT22;9810;52.480;9.806;2023-04-06T08:51:10;26.40;56.80
19348;DHT22;9810;52.480;9.806;2023-04-06T08:53:39;25.20;56.10
19348;DHT22;9810;52.480;9.806;2023-04-06T08:56:07;26.80;56.30
19348;DHT22;9810;52.480;9.806;2023-04-06T08:58:39;27.40;57.40
19348;DHT22;9810;52.480;9.806;2023-04-06T09:01:08;25.80;55.00
19348;DHT22;9810;52.480;9.806;2023-04-06T09:03:38;27.80;54.70
19348;DHT22;9810;52.480;9.806;2023-04-06T09:06:06;27.90;54.60
19348;DHT22;9810;52.480;9.806;2023-04-06T09:08:38;27.50;53.40
19348;DHT22;9810;52.480;9.806;2023-04-06T09:11:05;25.70;53.70
19348;DHT22;9810;52.480;9.806;2023-04-06T09:13:45;24.20;52.10
19348;DHT22;9810;52.480;9.806;2023-04-06T09:16:12;26.60;55.80
19348;DHT22;9810;52.480;9.806;2023-04-06T09:18:40;27.80;53.00
19348;DHT22;9810;52.480;9.806;2023-04-06T09:21:08;26.80;53.30
19348;DHT22;9810;52.480;9.806;2023-04-06T09:23:38;25.40;53.40
19348;DHT22;9810;52.480;9.806;2023-04-06T09:26:10;26.20;52.00
19348;DHT22;9810;52.480;9.806;2023-04-06T09:28:45;23.90;53.40
19348;DHT22;9810;52.480;9.806;2023-04-06T09:31:13;25.40;53.00
19348;DHT22;9810;52.480;9.806;2023-04-06T09:33:41;27.10;52.40
19348;DHT22;9810;52.480;9.806;2023-04-06T09:36:09;26.30;52.30
19348;DHT22;9810;52.480;9.806;2023-04-06T09:38:39;23.60;52.60
19348;DHT22;9810;52.480;9.806;2023-04-06T09:41:21;26.90;52.10
19348;DHT22;9810;52.480;9.806;2023-04-06T09:43:50;28.00;51.40
19348;DHT22;9810;52.480;9.806;2023-04-06T09:46:17;26.10;50.60
19348;DHT22;9810;52.480;9.806;2023-04-06T09:48:47;25.20;53.20
19348;DHT22;9810;52.480;9.806;2023-04-06T09:51:18;23.50;53.10
19348;DHT22;9810;52.480;9.806;2023-04-06T09:53:52;28.20;52.30
19348;DHT22;9810;52.480;9.806;2023-04-06T09:56:24;26.30;49.50
19348;DHT22;9810;52.480;9.806;2023-04-06T09:58:58;26.80;50.40
19348;DHT22;9810;52.480;9.806;2023-04-06T10:01:30;27.70;50.50
19348;DHT22;9810;52.480;9.806;2023-04-06T10:04:07;25.90;50.10
19348;DHT22;9810;52.480;9.806;2023-04-06T10:06:38;28.80;52.20
19348;DHT22;9810;52.480;9.806;2023-04-06T10:09:08;28.90;51.60
19348;DHT22;9810;52.480;9.806;2023-04-06T10:11:37;25.40;49.40
19348;DHT22;9810;52.480;9.806;2023-04-06T10:14:05;25.00;52.50
19348;DHT22;9810;52.480;9.806;2023-04-06T10:16:33;24.60;53.80
19348;DHT22;9810;52.480;9.806;2023-04-06T10:19:06;25.80;50.90
19348;DHT22;9810;52.480;9.806;2023-04-06T10:21:38;28.90;49.90
19348;DHT22;9810;52.480;9.806;2023-04-06T10:24:09;28.00;49.00
19348;DHT22;9810;52.480;9.806;2023-04-06T10:26:38;26.90;51.10
19348;DHT22;9810;52.480;9.806;2023-04-06T10:29:06;25.00;47.80
19348;DHT22;9810;52.480;9.806;2023-04-06T10:31:39;26.10;49.60
19348;DHT22;9810;52.480;9.806;2023-04-06T10:34:06;24.50;49.60
19348;DHT22;9810;52.480;9.806;2023-04-06T10:36:35;25.20;51.00
19348;DHT22;9810;52.480;9.806;2023-04-06T10:39:04;24.60;57.20
19348;DHT22;9810;52.480;9.806;2023-04-06T10:41:34;26.20;51.20
19348;DHT22;9810;52.480;9.806;2023-04-06T10:44:02;22.10;54.60
19348;DHT22;9810;52.480;9.806;2023-04-06T10:46:30;25.00;57.60
19348;DHT22;9810;52.480;9.806;2023-04-06T10:48:58;24.60;51.80
19348;DHT22;9810;52.480;9.806;2023-04-06T10:51:38;23.50;51.40
19348;DHT22;9810;52.480;9.806;2023-04-06T10:54:06;24.00;55.40
19348;DHT22;9810;52.480;9.806;2023-04-06T10:56:37;22.80;51.20
19348;DHT22;9810;52.480;9.806;2023-04-06T10:59:06;23.90;52.70
19348;DHT22;9810;52.480;9.806;2023-04-06T11:01:33;26.10;52.70
19348;DHT22;9810;52.480;9.806;2023-04-06T11:04:01;27.10;52.90
19348;DHT22;9810;52.480;9.806;2023-04-06T11:06:30;23.60;51.40
19348;DHT22;9810;52.480;9.806;2023-04-06T11:08:58;21.60;55.20
19348;DHT22;9810;52.480;9.806;2023-04-06T11:11:26;21.60;55.10
19348;DHT22;9810;52.480;9.806;2023-04-06T11:13:56;19.70;55.30
19348;DHT22;9810;52.480;9.806;2023-04-06T11:16:25;19.90;59.20
19348;DHT22;9810;52.480;9.806;2023-04-06T11:18:54;19.00;59.20
19348;DHT22;9810;52.480;9.806;2023-04-06T11:21:32;17.90;60.00
19348;DHT22;9810;52.480;9.806;2023-04-06T11:24:08;17.50;62.70
19348;DHT22;9810;52.480;9.806;2023-04-06T11:26:43;17.10;63.00
19348;DHT22;9810;52.480;9.806;2023-04-06T11:29:13;16.60;61.30
19348;DHT22;9810;52.480;9.806;2023-04-06T11:31:52;16.20;64.70
19348;DHT22;9810;52.480;9.806;2023-04-06T11:34:21;15.80;68.70
19348;DHT22;9810;52.480;9.806;2023-04-06T11:36:55;15.80;66.40
19348;DHT22;9810;52.480;9.806;2023-04-06T11:39:24;15.80;66.70
19348;DHT22;9810;52.480;9.806;2023-04-06T11:41:53;15.50;66.70
19348;DHT22;9810;52.480;9.806;2023-04-06T11:44:32;14.90;67.40
19348;DHT22;9810;52.480;9.806;2023-04-06T11:47:01;14.60;66.40
19348;DHT22;9810;52.480;9.806;2023-04-06T11:49:28;14.80;67.00
19348;DHT22;9810;52.480;9.806;2023-04-06T11:51:57;14.50;66.30
19348;DHT22;9810;52.480;9.806;2023-04-06T11:54:31;14.50;70.20
19348;DHT22;9810;52.480;9.806;2023-04-06T11:56:59;14.50;69.80
19348;DHT22;9810;52.480;9.806;2023-04-06T11:59:27;14.50;67.20
19348;DHT22;9810;52.480;9.806;2023-04-06T12:01:57;14.60;70.70
19348;DHT22;9810;52.480;9.806;2023-04-06T12:04:25;14.60;75.30
19348;DHT22;9810;52.480;9.806;2023-04-06T12:06:52;14.40;73.30
19348;DHT22;9810;52.480;9.806;2023-04-06T12:09:19;14.50;70.70
19348;DHT22;9810;52.480;9.806;2023-04-06T12:11:47;14.50;66.50
19348;DHT22;9810;52.480;9.806;2023-04-06T12:14:14;14.50;69.80
19348;DHT22;9810;52.480;9.806;2023-04-06T12:16:42;14.40;70.50
19348;DHT22;9810;52.480;9.806;2023-04-06T12:19:11;14.50;74.70
19348;DHT22;9810;52.480;9.806;2023-04-06T12:21:39;14.30;67.40
19348;DHT22;9810;52.480;9.806;2023-04-06T12:24:07;14.10;70.10
19348;DHT22;9810;52.480;9.806;2023-04-06T12:26:35;13.90;72.90
19348;DHT22;9810;52.480;9.806;2023-04-06T12:29:03;14.20;69.40
19348;DHT22;9810;52.480;9.806;2023-04-06T12:31:34;14.40;72.80
19348;DHT22;9810;52.480;9.806;2023-04-06T12:34:02;14.50;69.20
19348;DHT22;9810;52.480;9.806;2023-04-06T12:36:31;14.40;69.60
19348;DHT22;9810;52.480;9.806;2023-04-06T12:38:59;13.90;67.50
19348;DHT22;9810;52.480;9.806;2023-04-06T12:41:28;14.30;71.30
19348;DHT22;9810;52.480;9.806;2023-04-06T12:43:56;14.30;71.30
19348;DHT22;9810;52.480;9.806;2023-04-06T12:46:24;14.30;73.70
19348;DHT22;9810;52.480;9.806;2023-04-06T12:48:52;14.00;67.00
19348;DHT22;9810;52.480;9.806;2023-04-06T12:51:21;13.90;72.50
19348;DHT22;9810;52.480;9.806;2023-04-06T12:53:50;13.80;67.50
19348;DHT22;9810;52.480;9.806;2023-04-06T12:56:18;14.00;72.60
19348;DHT22;9810;52.480;9.806;2023-04-06T12:58:46;14.10;72.20
19348;DHT22;9810;52.480;9.806;2023-04-06T13:01:14;14.30;73.40
19348;DHT22;9810;52.480;9.806;2023-04-06T13:03:42;14.20;69.00
19348;DHT22;9810;52.480;9.806;2023-04-06T13:06:10;14.40;78.00
19348;DHT22;9810;52.480;9.806;2023-04-06T13:08:39;14.40;75.40
19348;DHT22;9810;52.480;9.806;2023-04-06T13:11:08;14.50;76.50
19348;DHT22;9810;52.480;9.806;2023-04-06T13:13:36;14.70;75.60
19348;DHT22;9810;52.480;9.806;2023-04-06T13:16:05;14.90;77.40
19348;DHT22;9810;52.480;9.806;2023-04-06T13:18:34;14.70;73.60
19348;DHT22;9810;52.480;9.806;2023-04-06T13:21:04;14.40;74.80
19348;DHT22;9810;52.480;9.806;2023-04-06T13:23:31;14.60;73.90
19348;DHT22;9810;52.480;9.806;2023-04-06T13:26:00;14.60;72.60
19348;DHT22;9810;52.480;9.806;2023-04-06T13:28:31;14.40;76.30
19348;DHT22;9810;52.480;9.806;2023-04-06T13:30:59;14.40;70.60
19348;DHT22;9810;52.480;9.806;2023-04-06T13:33:26;14.40;73.70
19348;DHT22;9810;52.480;9.806;2023-04-06T13:35:54;14.30;70.00
19348;DHT22;9810;52.480;9.806;2023-04-06T13:38:21;14.60;74.80
19348;DHT22;9810;52.480;9.806;2023-04-06T13:40:49;14.50;74.80
19348;DHT22;9810;52.480;9.806;2023-04-06T13:43:17;14.40;71.30
19348;DHT22;9810;52.480;9.806;2023-04-06T13:45:50;14.80;85.20
19348;DHT22;9810;52.480;9.806;2023-04-06T13:48:17;14.90;78.90
19348;DHT22;9810;52.480;9.806;2023-04-06T13:50:45;14.80;76.00
19348;DHT22;9810;52.480;9.806;2023-04-06T13:53:13;14.50;74.00
19348;DHT22;9810;52.480;9.806;2023-04-06T13:55:40;14.40;73.00
19348;DHT22;9810;52.480;9.806;2023-04-06T13:58:08;14.00;70.30
19348;DHT22;9810;52.480;9.806;2023-04-06T14:00:35;13.80;71.10
19348;DHT22;9810;52.480;9.806;2023-04-06T14:03:05;13.90;73.20
19348;DHT22;9810;52.480;9.806;2023-04-06T14:05:33;13.90;71.60
19348;DHT22;9810;52.480;9.806;2023-04-06T14:08:01;14.20;73.20
19348;DHT22;9810;52.480;9.806;2023-04-06T14:10:28;13.90;71.50
19348;DHT22;9810;52.480;9.806;2023-04-06T14:12:56;14.20;72.10
19348;DHT22;9810;52.480;9.806;2023-04-06T14:15:23;14.30;78.00
19348;DHT22;9810;52.480;9.806;2023-04-06T14:17:50;14.10;73.20
19348;DHT22;9810;52.480;9.806;2023-04-06T14:20:21;14.20;70.40
19348;DHT22;9810;52.480;9.806;2023-04-06T14:22:48;14.10;74.50
19348;DHT22;9810;52.480;9.806;2023-04-06T14:25:18;14.30;72.50
19348;DHT22;9810;52.480;9.806;2023-04-06T14:27:45;14.10;72.40
19348;DHT22;9810;52.480;9.806;2023-04-06T14:30:13;14.20;74.00
19348;DHT22;9810;52.480;9.806;2023-04-06T14:32:41;14.50;73.10
19348;DHT22;9810;52.480;9.806;2023-04-06T14:35:09;14.30;77.00
19348;DHT22;9810;52.480;9.806;2023-04-06T14:37:38;14.40;73.60
19348;DHT22;9810;52.480;9.806;2023-04-06T14:40:07;14.10;70.60
19348;DHT22;9810;52.480;9.806;2023-04-06T14:42:35;13.60;70.70
19348;DHT22;9810;52.480;9.806;2023-04-06T14:45:03;13.80;71.10
19348;DHT22;9810;52.480;9.806;2023-04-06T14:47:31;13.80;70.10
19348;DHT22;9810;52.480;9.806;2023-04-06T14:49:59;13.90;74.70
19348;DHT22;9810;52.480;9.806;2023-04-06T14:52:26;14.00;70.80
19348;DHT22;9810;52.480;9.806;2023-04-06T14:54:55;14.10;73.80
19348;DHT22;9810;52.480;9.806;2023-04-06T14:57:23;14.00;70.20
19348;DHT22;9810;52.480;9.806;2023-04-06T14:59:52;14.50;79.50
19348;DHT22;9810;52.480;9.806;2023-04-06T15:02:20;14.70;74.40
19348;DHT22;9810;52.480;9.806;2023-04-06T15:04:47;14.60;71.70
19348;DHT22;9810;52.480;9.806;2023-04-06T15:07:15;14.20;70.50
19348;DHT22;9810;52.480;9.806;2023-04-06T15:09:42;14.20;70.70
19348;DHT22;9810;52.480;9.806;2023-04-06T15:12:11;14.20;71.50
19348;DHT22;9810;52.480;9.806;2023-04-06T15:14:38;14.10;70.10
19348;DHT22;9810;52.480;9.806;2023-04-06T15:17:05;14.30;72.10
19348;DHT22;9810;52.480;9.806;2023-04-06T15:19:33;14.30;72.70
19348;DHT22;9810;52.480;9.806;2023-04-06T15:22:00;14.00;70.00
19348;DHT22;9810;52.480;9.806;2023-04-06T15:24:27;13.90;69.60
19348;DHT22;9810;52.480;9.806;2023-04-06T15:26:55;13.90;69.00
19348;DHT22;9810;52.480;9.806;2023-04-06T15:29:24;14.20;70.30
19348;DHT22;9810;52.480;9.806;2023-04-06T15:31:52;14.20;74.00
19348;DHT22;9810;52.480;9.806;2023-04-06T15:34:19;14.10;70.10
19348;DHT22;9810;52.480;9.806;2023-04-06T15:36:46;14.00;69.80
19348;DHT22;9810;52.480;9.806;2023-04-06T15:39:14;14.30;75.30
19348;DHT22;9810;52.480;9.806;2023-04-06T15:41:41;14.30;73.70
19348;DHT22;9810;52.480;9.806;2023-04-06T15:44:08;14.30;71.20
19348;DHT22;9810;52.480;9.806;2023-04-06T15:46:37;14.10;73.90
19348;DHT22;9810;52.480;9.806;2023-04-06T15:49:04;14.30;75.50
19348;DHT22;9810;52.480;9.806;2023-04-06T15:51:32;14.20;74.40
19348;DHT22;9810;52.480;9.806;2023-04-06T15:53:59;14.20;74.50
19348;DHT22;9810;52.480;9.806;2023-04-06T15:56:26;14.10;68.50